sensor_id;sensor_type;location;lat;lon;timestamp;P1;durP1;ratioP1;P2;durP2;ratioP2
7116;SDS011;3600;48.568;7.870;2023-10-19T00:00:57;18.27;;;16.38;;
7116;SDS011;3600;48.568;7.870;2023-10-19T00:03:26;20.63;;;16.92;;
7116;SDS011;3600;48.568;7.870;2023-10-19T00:05:55;17.70;;;15.73;;
7116;SDS011;3600;48.568;7.870;2023-10-19T00:08:22;18.95;;;16.55;;
7116;SDS011;3600;48.568;7.870;2023-10-19T00:10:53;18.00;;;16.10;;
7116;SDS011;3600;48.568;7.870;2023-10-19T00:13:37;19.02;;;16.15;;
7116;SDS011;3600;48.568;7.870;2023-10-19T00:16:08;23.02;;;16.13;;
7116;SDS011;3600;48.568;7.870;2023-10-19T00:18:43;17.63;;;15.73;;
7116;SDS011;3600;48.568;7.870;2023-10-19T00:21:10;20.40;;;15.55;;
7116;SDS011;3600;48.568;7.870;2023-10-19T00:23:46;18.33;;;15.80;;
7116;SDS011;3600;48.568;7.870;2023-10-19T00:26:13;19.83;;;15.98;;
7116;SDS011;3600;48.568;7.870;2023-10-19T00:28:51;18.50;;;16.50;;
7116;SDS011;3600;48.568;7.870;2023-10-19T00:31:38;18.30;;;15.73;;
7116;SDS011;3600;48.568;7.870;2023-10-19T00:34:07;18.38;;;15.68;;
7116;SDS011;3600;48.568;7.870;2023-10-19T00:36:34;17.27;;;15.38;;
7116;SDS011;3600;48.568;7.870;2023-10-19T00:39:04;17.35;;;15.15;;
7116;SDS011;3600;48.568;7.870;2023-10-19T00:41:41;20.73;;;15.82;;
7116;SDS011;3600;48.568;7.870;2023-10-19T00:44:09;18.67;;;16.25;;
7116;SDS011;3600;48.568;7.870;2023-10-19T00:46:39;17.00;;;15.30;;
7116;SDS011;3600;48.568;7.870;2023-10-19T00:49:09;18.30;;;15.02;;
7116;SDS011;3600;48.568;7.870;2023-10-19T00:51:44;17.45;;;15.45;;
7116;SDS011;3600;48.568;7.870;2023-10-19T00:57:02;17.45;;;15.40;;
7116;SDS011;3600;48.568;7.870;2023-10-19T00:59:34;17.75;;;15.80;;
7116;SDS011;3600;48.568;7.870;2023-10-19T01:02:05;17.88;;;15.98;;
7116;SDS011;3600;48.568;7.870;2023-10-19T01:04:49;20.67;;;16.00;;
7116;SDS011;3600;48.568;7.870;2023-10-19T01:07:22;17.88;;;14.60;;
7116;SDS011;3600;48.568;7.870;2023-10-19T01:09:53;18.25;;;15.38;;
7116;SDS011;3600;48.568;7.870;2023-10-19T01:12:28;17.42;;;15.52;;
7116;SDS011;3600;48.568;7.870;2023-10-19T01:15:02;16.27;;;14.20;;
7116;SDS011;3600;48.568;7.870;2023-10-19T01:17:55;17.02;;;14.95;;
7116;SDS011;3600;48.568;7.870;2023-10-19T01:20:27;16.10;;;14.40;;
7116;SDS011;3600;48.568;7.870;2023-10-19T01:23:05;17.00;;;14.30;;
7116;SDS011;3600;48.568;7.870;2023-10-19T01:28:30;16.83;;;14.30;;
7116;SDS011;3600;48.568;7.870;2023-10-19T01:31:13;16.98;;;14.13;;
7116;SDS011;3600;48.568;7.870;2023-10-19T01:33:57;18.55;;;15.32;;
7116;SDS011;3600;48.568;7.870;2023-10-19T01:36:25;15.85;;;14.18;;
7116;SDS011;3600;48.568;7.870;2023-10-19T01:38:53;14.95;;;13.15;;
7116;SDS011;3600;48.568;7.870;2023-10-19T01:41:22;16.85;;;14.27;;
7116;SDS011;3600;48.568;7.870;2023-10-19T01:43:51;16.25;;;13.93;;
7116;SDS011;3600;48.568;7.870;2023-10-19T01:46:22;14.98;;;13.30;;
7116;SDS011;3600;48.568;7.870;2023-10-19T01:48:53;15.85;;;13.60;;
7116;SDS011;3600;48.568;7.870;2023-10-19T01:51:23;17.23;;;13.55;;
7116;SDS011;3600;48.568;7.870;2023-10-19T01:53:55;15.73;;;12.73;;
7116;SDS011;3600;48.568;7.870;2023-10-19T01:56:23;14.57;;;12.45;;
7116;SDS011;3600;48.568;7.870;2023-10-19T01:58:50;17.42;;;13.25;;
7116;SDS011;3600;48.568;7.870;2023-10-19T02:01:24;16.85;;;12.68;;
7116;SDS011;3600;48.568;7.870;2023-10-19T02:03:55;15.05;;;12.65;;
7116;SDS011;3600;48.568;7.870;2023-10-19T02:06:28;14.05;;;12.35;;
7116;SDS011;3600;48.568;7.870;2023-10-19T02:11:56;13.98;;;12.45;;
7116;SDS011;3600;48.568;7.870;2023-10-19T02:14:24;14.02;;;12.63;;
7116;SDS011;3600;48.568;7.870;2023-10-19T02:16:53;14.27;;;12.40;;
7116;SDS011;3600;48.568;7.870;2023-10-19T02:19:24;15.13;;;13.20;;
7116;SDS011;3600;48.568;7.870;2023-10-19T02:21:53;15.55;;;13.35;;
7116;SDS011;3600;48.568;7.870;2023-10-19T02:24:22;15.27;;;12.63;;
7116;SDS011;3600;48.568;7.870;2023-10-19T02:26:49;15.23;;;13.50;;
7116;SDS011;3600;48.568;7.870;2023-10-19T02:29:20;13.98;;;12.32;;
7116;SDS011;3600;48.568;7.870;2023-10-19T02:31:52;15.93;;;12.88;;
7116;SDS011;3600;48.568;7.870;2023-10-19T02:34:20;14.77;;;12.73;;
7116;SDS011;3600;48.568;7.870;2023-10-19T02:36:49;15.93;;;12.80;;
7116;SDS011;3600;48.568;7.870;2023-10-19T02:39:16;16.05;;;13.48;;
7116;SDS011;3600;48.568;7.870;2023-10-19T02:41:47;16.25;;;13.15;;
7116;SDS011;3600;48.568;7.870;2023-10-19T02:44:16;15.70;;;13.38;;
7116;SDS011;3600;48.568;7.870;2023-10-19T02:46:44;19.02;;;13.55;;
7116;SDS011;3600;48.568;7.870;2023-10-19T02:49:13;14.82;;;13.32;;
7116;SDS011;3600;48.568;7.870;2023-10-19T02:51:45;18.85;;;14.15;;
7116;SDS011;3600;48.568;7.870;2023-10-19T02:54:13;14.45;;;12.95;;
7116;SDS011;3600;48.568;7.870;2023-10-19T02:56:51;15.27;;;13.68;;
7116;SDS011;3600;48.568;7.870;2023-10-19T02:59:23;16.83;;;14.05;;
7116;SDS011;3600;48.568;7.870;2023-10-19T03:01:51;14.43;;;12.95;;
7116;SDS011;3600;48.568;7.870;2023-10-19T03:04:19;17.40;;;14.00;;
7116;SDS011;3600;48.568;7.870;2023-10-19T03:06:47;14.95;;;13.45;;
7116;SDS011;3600;48.568;7.870;2023-10-19T03:09:14;15.30;;;13.55;;
7116;SDS011;3600;48.568;7.870;2023-10-19T03:11:56;15.45;;;13.05;;
7116;SDS011;3600;48.568;7.870;2023-10-19T03:14:26;15.52;;;12.57;;
7116;SDS011;3600;48.568;7.870;2023-10-19T03:16:53;16.70;;;13.65;;
7116;SDS011;3600;48.568;7.870;2023-10-19T03:19:24;14.45;;;12.90;;
7116;SDS011;3600;48.568;7.870;2023-10-19T03:21:52;17.80;;;13.25;;
7116;SDS011;3600;48.568;7.870;2023-10-19T03:24:21;14.45;;;12.88;;
7116;SDS011;3600;48.568;7.870;2023-10-19T03:27:07;15.80;;;12.07;;
7116;SDS011;3600;48.568;7.870;2023-10-19T03:29:48;13.82;;;12.43;;
7116;SDS011;3600;48.568;7.870;2023-10-19T03:32:23;14.27;;;11.02;;
7116;SDS011;3600;48.568;7.870;2023-10-19T03:34:59;13.00;;;11.27;;
7116;SDS011;3600;48.568;7.870;2023-10-19T03:37:26;13.68;;;11.90;;
7116;SDS011;3600;48.568;7.870;2023-10-19T03:39:57;12.13;;;10.93;;
7116;SDS011;3600;48.568;7.870;2023-10-19T03:42:25;13.30;;;11.77;;
7116;SDS011;3600;48.568;7.870;2023-10-19T03:44:54;13.50;;;11.50;;
7116;SDS011;3600;48.568;7.870;2023-10-19T03:47:21;11.68;;;10.57;;
7116;SDS011;3600;48.568;7.870;2023-10-19T03:49:53;11.48;;;10.23;;
7116;SDS011;3600;48.568;7.870;2023-10-19T03:52:20;11.95;;;10.70;;
7116;SDS011;3600;48.568;7.870;2023-10-19T03:54:47;11.85;;;10.32;;
7116;SDS011;3600;48.568;7.870;2023-10-19T03:57:15;11.57;;;10.40;;
7116;SDS011;3600;48.568;7.870;2023-10-19T03:59:49;10.55;;;8.98;;
7116;SDS011;3600;48.568;7.870;2023-10-19T04:02:20;10.07;;;9.07;;
7116;SDS011;3600;48.568;7.870;2023-10-19T04:04:47;15.35;;;9.13;;
7116;SDS011;3600;48.568;7.870;2023-10-19T04:07:15;10.40;;;9.40;;
7116;SDS011;3600;48.568;7.870;2023-10-19T04:09:49;12.70;;;10.07;;
7116;SDS011;3600;48.568;7.870;2023-10-19T04:12:35;12.25;;;10.95;;
7116;SDS011;3600;48.568;7.870;2023-10-19T04:15:07;14.57;;;10.15;;
7116;SDS011;3600;48.568;7.870;2023-10-19T04:17:43;12.45;;;10.38;;
7116;SDS011;3600;48.568;7.870;2023-10-19T04:20:12;13.52;;;10.40;;
7116;SDS011;3600;48.568;7.870;2023-10-19T04:22:43;11.63;;;10.43;;
7116;SDS011;3600;48.568;7.870;2023-10-19T04:25:11;12.50;;;10.65;;
7116;SDS011;3600;48.568;7.870;2023-10-19T04:27:42;12.40;;;11.13;;
7116;SDS011;3600;48.568;7.870;2023-10-19T04:30:10;12.63;;;11.40;;
7116;SDS011;3600;48.568;7.870;2023-10-19T04:32:53;13.93;;;11.15;;
7116;SDS011;3600;48.568;7.870;2023-10-19T04:35:24;13.60;;;11.57;;
7116;SDS011;3600;48.568;7.870;2023-10-19T04:37:56;12.70;;;11.40;;
7116;SDS011;3600;48.568;7.870;2023-10-19T04:40:23;13.07;;;11.75;;
7116;SDS011;3600;48.568;7.870;2023-10-19T04:42:50;14.77;;;13.25;;
7116;SDS011;3600;48.568;7.870;2023-10-19T04:45:18;14.15;;;12.45;;
7116;SDS011;3600;48.568;7.870;2023-10-19T04:47:45;17.80;;;15.52;;
7116;SDS011;3600;48.568;7.870;2023-10-19T04:50:13;16.75;;;14.98;;
7116;SDS011;3600;48.568;7.870;2023-10-19T04:52:39;15.93;;;14.13;;
7116;SDS011;3600;48.568;7.870;2023-10-19T04:55:07;15.07;;;12.68;;
7116;SDS011;3600;48.568;7.870;2023-10-19T04:57:33;14.77;;;12.25;;
7116;SDS011;3600;48.568;7.870;2023-10-19T05:00:01;13.75;;;11.80;;
7116;SDS011;3600;48.568;7.870;2023-10-19T05:02:29;15.73;;;13.15;;
7116;SDS011;3600;48.568;7.870;2023-10-19T05:04:56;15.60;;;13.05;;
7116;SDS011;3600;48.568;7.870;2023-10-19T05:07:23;14.23;;;12.60;;
7116;SDS011;3600;48.568;7.870;2023-10-19T05:09:50;15.30;;;12.77;;
7116;SDS011;3600;48.568;7.870;2023-10-19T05:12:17;14.48;;;12.70;;
7116;SDS011;3600;48.568;7.870;2023-10-19T05:14:45;14.07;;;12.50;;
7116;SDS011;3600;48.568;7.870;2023-10-19T05:17:11;12.45;;;11.25;;
7116;SDS011;3600;48.568;7.870;2023-10-19T05:19:40;15.70;;;11.50;;
7116;SDS011;3600;48.568;7.870;2023-10-19T05:22:08;11.50;;;10.38;;
7116;SDS011;3600;48.568;7.870;2023-10-19T05:24:35;12.00;;;10.75;;
7116;SDS011;3600;48.568;7.870;2023-10-19T05:27:02;12.48;;;11.18;;
7116;SDS011;3600;48.568;7.870;2023-10-19T05:29:33;11.55;;;10.45;;
7116;SDS011;3600;48.568;7.870;2023-10-19T05:31:59;12.15;;;10.95;;
7116;SDS011;3600;48.568;7.870;2023-10-19T05:34:28;13.43;;;11.90;;
7116;SDS011;3600;48.568;7.870;2023-10-19T05:37:01;13.13;;;11.57;;
7116;SDS011;3600;48.568;7.870;2023-10-19T05:39:29;12.55;;;10.25;;
7116;SDS011;3600;48.568;7.870;2023-10-19T05:41:57;14.18;;;10.80;;
7116;SDS011;3600;48.568;7.870;2023-10-19T05:44:28;12.20;;;10.65;;
7116;SDS011;3600;48.568;7.870;2023-10-19T05:46:57;11.68;;;10.55;;
7116;SDS011;3600;48.568;7.870;2023-10-19T05:49:25;12.07;;;9.93;;
7116;SDS011;3600;48.568;7.870;2023-10-19T05:51:52;12.07;;;10.50;;
7116;SDS011;3600;48.568;7.870;2023-10-19T05:54:19;11.45;;;10.35;;
7116;SDS011;3600;48.568;7.870;2023-10-19T05:56:49;11.38;;;10.10;;
7116;SDS011;3600;48.568;7.870;2023-10-19T05:59:18;12.23;;;10.73;;
7116;SDS011;3600;48.568;7.870;2023-10-19T06:01:44;11.50;;;9.90;;
7116;SDS011;3600;48.568;7.870;2023-10-19T06:04:15;12.20;;;11.00;;
7116;SDS011;3600;48.568;7.870;2023-10-19T06:06:46;12.13;;;10.68;;
7116;SDS011;3600;48.568;7.870;2023-10-19T06:09:14;12.50;;;11.20;;
7116;SDS011;3600;48.568;7.870;2023-10-19T06:11:42;12.75;;;11.48;;
7116;SDS011;3600;48.568;7.870;2023-10-19T06:14:09;13.38;;;11.82;;
7116;SDS011;3600;48.568;7.870;2023-10-19T06:16:36;14.45;;;12.48;;
7116;SDS011;3600;48.568;7.870;2023-10-19T06:19:03;13.85;;;11.77;;
7116;SDS011;3600;48.568;7.870;2023-10-19T06:21:31;15.05;;;11.68;;
7116;SDS011;3600;48.568;7.870;2023-10-19T06:24:00;16.17;;;14.02;;
7116;SDS011;3600;48.568;7.870;2023-10-19T06:26:27;14.57;;;11.57;;
7116;SDS011;3600;48.568;7.870;2023-10-19T06:28:54;14.73;;;10.82;;
7116;SDS011;3600;48.568;7.870;2023-10-19T06:31:28;13.55;;;10.90;;
7116;SDS011;3600;48.568;7.870;2023-10-19T06:33:56;12.40;;;10.93;;
7116;SDS011;3600;48.568;7.870;2023-10-19T06:36:24;12.30;;;10.23;;
7116;SDS011;3600;48.568;7.870;2023-10-19T06:38:51;13.38;;;10.88;;
7116;SDS011;3600;48.568;7.870;2023-10-19T06:41:20;11.65;;;9.80;;
7116;SDS011;3600;48.568;7.870;2023-10-19T06:43:48;13.25;;;11.80;;
7116;SDS011;3600;48.568;7.870;2023-10-19T06:46:15;13.10;;;10.27;;
7116;SDS011;3600;48.568;7.870;2023-10-19T06:48:42;16.48;;;14.38;;
7116;SDS011;3600;48.568;7.870;2023-10-19T06:51:09;17.25;;;14.77;;
7116;SDS011;3600;48.568;7.870;2023-10-19T06:53:36;24.70;;;19.67;;
7116;SDS011;3600;48.568;7.870;2023-10-19T06:56:03;20.48;;;18.25;;
7116;SDS011;3600;48.568;7.870;2023-10-19T06:58:30;17.83;;;15.93;;
7116;SDS011;3600;48.568;7.870;2023-10-19T07:00:57;17.08;;;15.27;;
7116;SDS011;3600;48.568;7.870;2023-10-19T07:03:32;17.38;;;14.63;;
7116;SDS011;3600;48.568;7.870;2023-10-19T07:05:59;16.73;;;14.77;;
7116;SDS011;3600;48.568;7.870;2023-10-19T07:08:34;16.45;;;14.73;;
7116;SDS011;3600;48.568;7.870;2023-10-19T07:11:01;16.02;;;14.43;;
7116;SDS011;3600;48.568;7.870;2023-10-19T07:13:28;17.08;;;15.27;;
7116;SDS011;3600;48.568;7.870;2023-10-19T07:15:57;16.40;;;14.68;;
7116;SDS011;3600;48.568;7.870;2023-10-19T07:18:25;16.85;;;15.02;;
7116;SDS011;3600;48.568;7.870;2023-10-19T07:20:51;21.77;;;15.68;;
7116;SDS011;3600;48.568;7.870;2023-10-19T07:23:19;15.50;;;13.60;;
7116;SDS011;3600;48.568;7.870;2023-10-19T07:25:48;16.02;;;12.57;;
7116;SDS011;3600;48.568;7.870;2023-10-19T07:28:20;15.60;;;13.32;;
7116;SDS011;3600;48.568;7.870;2023-10-19T07:30:48;16.00;;;13.68;;
7116;SDS011;3600;48.568;7.870;2023-10-19T07:33:17;17.27;;;13.02;;
7116;SDS011;3600;48.568;7.870;2023-10-19T07:35:45;15.15;;;12.90;;
7116;SDS011;3600;48.568;7.870;2023-10-19T07:38:13;16.90;;;12.95;;
7116;SDS011;3600;48.568;7.870;2023-10-19T07:40:40;13.55;;;11.77;;
7116;SDS011;3600;48.568;7.870;2023-10-19T07:43:08;14.07;;;11.38;;
7116;SDS011;3600;48.568;7.870;2023-10-19T07:45:35;13.25;;;11.80;;
7116;SDS011;3600;48.568;7.870;2023-10-19T07:48:03;16.42;;;12.30;;
7116;SDS011;3600;48.568;7.870;2023-10-19T07:50:35;13.88;;;12.25;;
7116;SDS011;3600;48.568;7.870;2023-10-19T07:53:04;14.57;;;11.98;;
7116;SDS011;3600;48.568;7.870;2023-10-19T07:55:31;14.25;;;11.45;;
7116;SDS011;3600;48.568;7.870;2023-10-19T07:58:00;14.00;;;11.25;;
7116;SDS011;3600;48.568;7.870;2023-10-19T08:00:29;13.57;;;11.07;;
7116;SDS011;3600;48.568;7.870;2023-10-19T08:02:57;11.35;;;10.15;;
7116;SDS011;3600;48.568;7.870;2023-10-19T08:05:25;12.27;;;10.13;;
7116;SDS011;3600;48.568;7.870;2023-10-19T08:07:52;15.80;;;11.13;;
7116;SDS011;3600;48.568;7.870;2023-10-19T08:10:20;14.23;;;11.70;;
7116;SDS011;3600;48.568;7.870;2023-10-19T08:12:47;13.38;;;11.80;;
7116;SDS011;3600;48.568;7.870;2023-10-19T08:15:15;12.90;;;11.60;;
7116;SDS011;3600;48.568;7.870;2023-10-19T08:17:44;12.75;;;11.07;;
7116;SDS011;3600;48.568;7.870;2023-10-19T08:20:13;13.45;;;11.93;;
7116;SDS011;3600;48.568;7.870;2023-10-19T08:22:52;13.32;;;11.73;;
7116;SDS011;3600;48.568;7.870;2023-10-19T08:25:20;14.52;;;12.10;;
7116;SDS011;3600;48.568;7.870;2023-10-19T08:27:48;13.35;;;11.95;;
7116;SDS011;3600;48.568;7.870;2023-10-19T08:30:17;15.55;;;12.00;;
7116;SDS011;3600;48.568;7.870;2023-10-19T08:32:48;12.27;;;11.10;;
7116;SDS011;3600;48.568;7.870;2023-10-19T08:35:20;13.85;;;11.85;;
7116;SDS011;3600;48.568;7.870;2023-10-19T08:37:55;14.20;;;11.73;;
7116;SDS011;3600;48.568;7.870;2023-10-19T08:40:25;12.93;;;11.57;;
7116;SDS011;3600;48.568;7.870;2023-10-19T08:42:55;13.52;;;12.15;;
7116;SDS011;3600;48.568;7.870;2023-10-19T08:45:22;14.15;;;12.27;;
7116;SDS011;3600;48.568;7.870;2023-10-19T08:47:58;13.77;;;12.30;;
7116;SDS011;3600;48.568;7.870;2023-10-19T08:50:33;14.68;;;13.18;;
7116;SDS011;3600;48.568;7.870;2023-10-19T08:53:01;14.40;;;12.07;;
7116;SDS011;3600;48.568;7.870;2023-10-19T08:55:29;15.07;;;13.07;;
7116;SDS011;3600;48.568;7.870;2023-10-19T08:58:14;13.25;;;11.95;;
7116;SDS011;3600;48.568;7.870;2023-10-19T09:00:49;14.57;;;12.43;;
7116;SDS011;3600;48.568;7.870;2023-10-19T09:03:23;14.88;;;13.30;;
7116;SDS011;3600;48.568;7.870;2023-10-19T09:05:51;13.48;;;12.20;;
7116;SDS011;3600;48.568;7.870;2023-10-19T09:08:18;14.77;;;13.15;;
7116;SDS011;3600;48.568;7.870;2023-10-19T09:10:47;14.52;;;12.85;;
7116;SDS011;3600;48.568;7.870;2023-10-19T09:13:15;15.80;;;13.30;;
7116;SDS011;3600;48.568;7.870;2023-10-19T09:15:46;14.25;;;12.18;;
7116;SDS011;3600;48.568;7.870;2023-10-19T09:20:50;13.07;;;11.38;;
7116;SDS011;3600;48.568;7.870;2023-10-19T09:23:25;14.02;;;11.45;;
7116;SDS011;3600;48.568;7.870;2023-10-19T09:25:56;12.23;;;11.00;;
7116;SDS011;3600;48.568;7.870;2023-10-19T09:28:24;14.23;;;12.70;;
7116;SDS011;3600;48.568;7.870;2023-10-19T09:30:51;12.40;;;11.20;;
7116;SDS011;3600;48.568;7.870;2023-10-19T09:33:20;13.38;;;11.80;;
7116;SDS011;3600;48.568;7.870;2023-10-19T09:35:49;12.57;;;11.38;;
7116;SDS011;3600;48.568;7.870;2023-10-19T09:38:20;13.10;;;11.65;;
7116;SDS011;3600;48.568;7.870;2023-10-19T09:40:54;12.30;;;11.05;;
7116;SDS011;3600;48.568;7.870;2023-10-19T09:43:30;13.02;;;11.65;;
7116;SDS011;3600;48.568;7.870;2023-10-19T09:46:00;13.60;;;12.13;;
7116;SDS011;3600;48.568;7.870;2023-10-19T09:48:32;13.43;;;11.27;;
7116;SDS011;3600;48.568;7.870;2023-10-19T09:51:05;12.20;;;10.93;;
7116;SDS011;3600;48.568;7.870;2023-10-19T09:53:43;11.38;;;10.25;;
7116;SDS011;3600;48.568;7.870;2023-10-19T09:56:36;12.77;;;11.55;;
7116;SDS011;3600;48.568;7.870;2023-10-19T09:59:05;11.60;;;10.35;;
7116;SDS011;3600;48.568;7.870;2023-10-19T10:04:34;13.35;;;11.48;;
7116;SDS011;3600;48.568;7.870;2023-10-19T10:07:04;11.15;;;10.05;;
7116;SDS011;3600;48.568;7.870;2023-10-19T10:09:37;15.10;;;11.68;;
7116;SDS011;3600;48.568;7.870;2023-10-19T10:12:17;12.55;;;11.25;;
7116;SDS011;3600;48.568;7.870;2023-10-19T10:14:53;14.48;;;11.50;;
7116;SDS011;3600;48.568;7.870;2023-10-19T10:17:24;11.05;;;9.15;;
7116;SDS011;3600;48.568;7.870;2023-10-19T10:22:43;10.88;;;9.02;;
7116;SDS011;3600;48.568;7.870;2023-10-19T10:25:26;10.30;;;9.27;;
7116;SDS011;3600;48.568;7.870;2023-10-19T10:27:54;10.48;;;9.38;;
7116;SDS011;3600;48.568;7.870;2023-10-19T10:30:21;9.40;;;8.45;;
7116;SDS011;3600;48.568;7.870;2023-10-19T10:32:49;11.05;;;8.75;;
7116;SDS011;3600;48.568;7.870;2023-10-19T10:38:10;12.15;;;10.18;;
7116;SDS011;3600;48.568;7.870;2023-10-19T10:40:47;9.07;;;8.18;;
7116;SDS011;3600;48.568;7.870;2023-10-19T10:43:15;9.65;;;8.68;;
7116;SDS011;3600;48.568;7.870;2023-10-19T10:45:44;9.70;;;8.15;;
7116;SDS011;3600;48.568;7.870;2023-10-19T10:48:14;9.45;;;8.32;;
7116;SDS011;3600;48.568;7.870;2023-10-19T10:50:48;13.77;;;8.73;;
7116;SDS011;3600;48.568;7.870;2023-10-19T10:53:15;9.63;;;7.15;;
7116;SDS011;3600;48.568;7.870;2023-10-19T10:55:42;9.35;;;7.90;;
7116;SDS011;3600;48.568;7.870;2023-10-19T10:58:14;9.57;;;7.88;;
7116;SDS011;3600;48.568;7.870;2023-10-19T11:00:44;8.13;;;7.35;;
7116;SDS011;3600;48.568;7.870;2023-10-19T11:03:18;7.97;;;7.18;;
7116;SDS011;3600;48.568;7.870;2023-10-19T11:05:45;12.23;;;7.03;;
7116;SDS011;3600;48.568;7.870;2023-10-19T11:08:13;10.68;;;6.93;;
7116;SDS011;3600;48.568;7.870;2023-10-19T11:10:43;7.90;;;6.53;;
7116;SDS011;3600;48.568;7.870;2023-10-19T11:13:13;8.82;;;6.47;;
7116;SDS011;3600;48.568;7.870;2023-10-19T11:15:49;7.57;;;5.93;;
7116;SDS011;3600;48.568;7.870;2023-10-19T11:21:02;7.00;;;5.78;;
7116;SDS011;3600;48.568;7.870;2023-10-19T11:26:04;7.32;;;5.60;;
7116;SDS011;3600;48.568;7.870;2023-10-19T11:28:34;4.50;;;4.10;;
7116;SDS011;3600;48.568;7.870;2023-10-19T11:31:12;4.90;;;4.50;;
7116;SDS011;3600;48.568;7.870;2023-10-19T11:33:46;6.68;;;5.50;;
7116;SDS011;3600;48.568;7.870;2023-10-19T11:36:16;9.07;;;7.10;;
7116;SDS011;3600;48.568;7.870;2023-10-19T11:38:44;8.50;;;7.18;;
7116;SDS011;3600;48.568;7.870;2023-10-19T11:41:15;9.10;;;7.28;;
7116;SDS011;3600;48.568;7.870;2023-10-19T11:43:44;8.00;;;7.30;;
7116;SDS011;3600;48.568;7.870;2023-10-19T11:46:12;10.05;;;8.18;;
7116;SDS011;3600;48.568;7.870;2023-10-19T11:48:41;11.43;;;8.20;;
7116;SDS011;3600;48.568;7.870;2023-10-19T11:51:11;8.75;;;7.70;;
7116;SDS011;3600;48.568;7.870;2023-10-19T11:53:40;9.70;;;8.80;;
7116;SDS011;3600;48.568;7.870;2023-10-19T11:56:08;12.65;;;11.35;;
7116;SDS011;3600;48.568;7.870;2023-10-19T11:58:36;9.57;;;8.60;;
7116;SDS011;3600;48.568;7.870;2023-10-19T12:01:10;9.70;;;8.80;;
7116;SDS011;3600;48.568;7.870;2023-10-19T12:03:43;12.32;;;9.40;;
7116;SDS011;3600;48.568;7.870;2023-10-19T12:06:15;9.98;;;8.57;;
7116;SDS011;3600;48.568;7.870;2023-10-19T12:08:46;9.57;;;8.10;;
7116;SDS011;3600;48.568;7.870;2023-10-19T12:11:13;9.60;;;7.82;;
7116;SDS011;3600;48.568;7.870;2023-10-19T12:13:45;9.80;;;8.80;;
7116;SDS011;3600;48.568;7.870;2023-10-19T12:16:14;9.75;;;8.75;;
7116;SDS011;3600;48.568;7.870;2023-10-19T12:18:45;11.23;;;8.60;;
7116;SDS011;3600;48.568;7.870;2023-10-19T12:21:15;10.32;;;9.05;;
7116;SDS011;3600;48.568;7.870;2023-10-19T12:23:44;9.00;;;8.10;;
7116;SDS011;3600;48.568;7.870;2023-10-19T12:26:11;9.90;;;8.40;;
7116;SDS011;3600;48.568;7.870;2023-10-19T12:28:39;10.20;;;8.20;;
7116;SDS011;3600;48.568;7.870;2023-10-19T12:31:07;10.43;;;8.50;;
7116;SDS011;3600;48.568;7.870;2023-10-19T12:33:38;9.65;;;8.63;;
7116;SDS011;3600;48.568;7.870;2023-10-19T12:36:05;7.95;;;7.22;;
7116;SDS011;3600;48.568;7.870;2023-10-19T12:38:51;9.13;;;7.88;;
7116;SDS011;3600;48.568;7.870;2023-10-19T12:41:19;8.75;;;7.53;;
7116;SDS011;3600;48.568;7.870;2023-10-19T12:43:46;9.07;;;8.23;;
7116;SDS011;3600;48.568;7.870;2023-10-19T12:46:13;8.57;;;7.65;;
7116;SDS011;3600;48.568;7.870;2023-10-19T12:48:44;8.60;;;7.78;;
7116;SDS011;3600;48.568;7.870;2023-10-19T12:51:13;7.97;;;7.10;;
7116;SDS011;3600;48.568;7.870;2023-10-19T12:53:40;8.50;;;7.03;;
7116;SDS011;3600;48.568;7.870;2023-10-19T12:56:07;9.05;;;7.05;;
7116;SDS011;3600;48.568;7.870;2023-10-19T12:58:37;7.20;;;6.55;;
7116;SDS011;3600;48.568;7.870;2023-10-19T13:01:04;8.93;;;7.25;;
7116;SDS011;3600;48.568;7.870;2023-10-19T13:03:31;8.73;;;7.47;;
7116;SDS011;3600;48.568;7.870;2023-10-19T13:05:59;9.50;;;8.07;;
7116;SDS011;3600;48.568;7.870;2023-10-19T13:08:30;11.07;;;8.48;;
7116;SDS011;3600;48.568;7.870;2023-10-19T13:10:57;8.55;;;7.70;;
7116;SDS011;3600;48.568;7.870;2023-10-19T13:13:37;10.60;;;7.95;;
7116;SDS011;3600;48.568;7.870;2023-10-19T13:16:05;10.05;;;9.15;;
7116;SDS011;3600;48.568;7.870;2023-10-19T13:18:33;9.23;;;8.18;;
7116;SDS011;3600;48.568;7.870;2023-10-19T13:21:00;9.50;;;8.48;;
7116;SDS011;3600;48.568;7.870;2023-10-19T13:23:35;8.82;;;8.02;;
7116;SDS011;3600;48.568;7.870;2023-10-19T13:26:02;10.73;;;9.63;;
7116;SDS011;3600;48.568;7.870;2023-10-19T13:28:41;14.95;;;10.57;;
7116;SDS011;3600;48.568;7.870;2023-10-19T13:31:09;12.63;;;10.68;;
7116;SDS011;3600;48.568;7.870;2023-10-19T13:33:36;11.13;;;9.27;;
7116;SDS011;3600;48.568;7.870;2023-10-19T13:36:03;12.13;;;10.85;;
7116;SDS011;3600;48.568;7.870;2023-10-19T13:38:32;14.13;;;12.25;;
7116;SDS011;3600;48.568;7.870;2023-10-19T13:40:59;20.67;;;15.73;;
7116;SDS011;3600;48.568;7.870;2023-10-19T13:43:33;67.05;;;38.80;;
7116;SDS011;3600;48.568;7.870;2023-10-19T13:46:04;49.97;;;30.90;;
7116;SDS011;3600;48.568;7.870;2023-10-19T13:48:31;27.85;;;20.58;;
7116;SDS011;3600;48.568;7.870;2023-10-19T13:51:02;63.13;;;44.10;;
7116;SDS011;3600;48.568;7.870;2023-10-19T13:53:39;23.50;;;17.08;;
7116;SDS011;3600;48.568;7.870;2023-10-19T13:56:07;15.80;;;13.10;;
7116;SDS011;3600;48.568;7.870;2023-10-19T13:58:37;18.13;;;14.32;;
7116;SDS011;3600;48.568;7.870;2023-10-19T14:01:09;15.70;;;12.40;;
7116;SDS011;3600;48.568;7.870;2023-10-19T14:03:37;16.65;;;13.65;;
7116;SDS011;3600;48.568;7.870;2023-10-19T14:06:04;11.98;;;10.23;;
7116;SDS011;3600;48.568;7.870;2023-10-19T14:08:32;14.27;;;10.88;;
7116;SDS011;3600;48.568;7.870;2023-10-19T14:11:02;15.88;;;10.38;;
7116;SDS011;3600;48.568;7.870;2023-10-19T14:13:30;10.70;;;9.25;;
7116;SDS011;3600;48.568;7.870;2023-10-19T14:15:58;11.85;;;9.52;;
7116;SDS011;3600;48.568;7.870;2023-10-19T14:18:25;9.77;;;8.70;;
7116;SDS011;3600;48.568;7.870;2023-10-19T14:20:54;9.88;;;8.88;;
7116;SDS011;3600;48.568;7.870;2023-10-19T14:23:21;9.38;;;8.40;;
7116;SDS011;3600;48.568;7.870;2023-10-19T14:25:48;8.80;;;8.00;;
7116;SDS011;3600;48.568;7.870;2023-10-19T14:28:16;9.00;;;7.35;;
7116;SDS011;3600;48.568;7.870;2023-10-19T14:30:43;8.60;;;7.32;;
7116;SDS011;3600;48.568;7.870;2023-10-19T14:33:11;8.60;;;7.75;;
7116;SDS011;3600;48.568;7.870;2023-10-19T14:35:38;8.95;;;7.72;;
7116;SDS011;3600;48.568;7.870;2023-10-19T14:38:10;9.85;;;8.02;;
7116;SDS011;3600;48.568;7.870;2023-10-19T14:40:40;8.10;;;7.30;;
7116;SDS011;3600;48.568;7.870;2023-10-19T14:43:14;9.70;;;8.70;;
7116;SDS011;3600;48.568;7.870;2023-10-19T14:45:41;9.10;;;8.25;;
7116;SDS011;3600;48.568;7.870;2023-10-19T14:48:09;9.93;;;8.95;;
7116;SDS011;3600;48.568;7.870;2023-10-19T14:50:37;10.20;;;8.75;;
7116;SDS011;3600;48.568;7.870;2023-10-19T14:53:04;9.50;;;8.25;;
7116;SDS011;3600;48.568;7.870;2023-10-19T14:55:31;10.70;;;8.10;;
7116;SDS011;3600;48.568;7.870;2023-10-19T14:57:58;8.25;;;7.35;;
7116;SDS011;3600;48.568;7.870;2023-10-19T15:00:26;7.80;;;7.00;;
7116;SDS011;3600;48.568;7.870;2023-10-19T15:03:01;10.00;;;6.72;;
7116;SDS011;3600;48.568;7.870;2023-10-19T15:05:36;7.22;;;6.53;;
7116;SDS011;3600;48.568;7.870;2023-10-19T15:08:04;10.02;;;8.00;;
7116;SDS011;3600;48.568;7.870;2023-10-19T15:10:33;8.70;;;7.30;;
7116;SDS011;3600;48.568;7.870;2023-10-19T15:13:01;8.82;;;7.20;;
7116;SDS011;3600;48.568;7.870;2023-10-19T15:15:29;11.25;;;8.98;;
7116;SDS011;3600;48.568;7.870;2023-10-19T15:17:56;10.95;;;9.90;;
7116;SDS011;3600;48.568;7.870;2023-10-19T15:20:25;10.40;;;9.43;;
7116;SDS011;3600;48.568;7.870;2023-10-19T15:22:53;8.80;;;8.00;;
7116;SDS011;3600;48.568;7.870;2023-10-19T15:25:22;10.15;;;9.15;;
7116;SDS011;3600;48.568;7.870;2023-10-19T15:27:53;9.43;;;8.43;;
7116;SDS011;3600;48.568;7.870;2023-10-19T15:30:20;12.25;;;10.90;;
7116;SDS011;3600;48.568;7.870;2023-10-19T15:32:49;14.23;;;12.35;;
7116;SDS011;3600;48.568;7.870;2023-10-19T15:35:18;15.55;;;12.82;;
7116;SDS011;3600;48.568;7.870;2023-10-19T15:37:53;12.38;;;11.00;;